This is the latest recevied weather packets stored in our database for station/object KC4LZN. If no packets are shown the sender has not sent any weather packets the latest 10 day(s).
| Time | Temp. | Humidity | Pressure | Rain* | Wind** | Luminosity | Snow |
|---|---|---|---|---|---|---|---|
| 1777840167 | 25.56° C | 52% | 1017.1 hPa | 0 mm | - | 508 W/m² | - |
| 1777839866 | 26.11° C | 50% | 1017.1 hPa | 0 mm | - | 391 W/m² | - |
| 1777839564 | 25.56° C | 51% | 1017.1 hPa | 0 mm | - | 579 W/m² | - |
| 1777839261 | 25.56° C | 51% | 1017 hPa | 0 mm | - | 750 W/m² | - |
| 1777838958 | 26.11° C | 50% | 1017.1 hPa | 0 mm | - | 661 W/m² | - |
| 1777838654 | 26.11° C | 51% | 1017.1 hPa | 0 mm | - | 601 W/m² | - |
| 1777838351 | 26.11° C | 49% | 1017.2 hPa | 0 mm | - | 459 W/m² | - |
| 1777838048 | 25.56° C | 53% | 1017.2 hPa | 0 mm | - | 691 W/m² | - |
| 1777837745 | 24.44° C | 54% | 1017.5 hPa | 0 mm | - | 427 W/m² | - |
| 1777837441 | 25.56° C | 54% | 1017.4 hPa | 0 mm | - | 718 W/m² | - |
| 1777837137 | 25.56° C | 52% | 1017.4 hPa | 0 mm | - | 788 W/m² | - |
| 1777836833 | 24.44° C | 55% | 1017.7 hPa | 0 mm | - | 749 W/m² | - |
| 1777836529 | 25° C | 56% | 1017.8 hPa | 0 mm | - | 179 W/m² | - |
| 1777836225 | 25.56° C | 55% | 1017.8 hPa | 0 mm | - | 814 W/m² | - |
| 1777835921 | 25.56° C | 53% | 1017.9 hPa | 0 mm | - | 814 W/m² | - |
| 1777835618 | 25° C | 55% | 1018.1 hPa | 0 mm | - | 856 W/m² | - |
| 1777835315 | 25.56° C | 54% | 1018.1 hPa | 0 mm | - | 650 W/m² | - |
| 1777835012 | 25.56° C | 56% | 1018.2 hPa | 0 mm | - | 888 W/m² | - |
| 1777834709 | 25.56° C | 54% | 1018.3 hPa | 0 mm | - | 851 W/m² | - |
| 1777834406 | 25.56° C | 55% | 1018.1 hPa | 0 mm | - | 883 W/m² | - |
| 1777834105 | 25° C | 54% | 1018.3 hPa | 0 mm | - | 868 W/m² | - |
| 1777833802 | 25.56° C | 55% | 1018.3 hPa | 0 mm | - | 856 W/m² | - |
| 1777833497 | 25° C | 55% | 1018.6 hPa | 0 mm | - | 545 W/m² | - |
| 1777833195 | 25° C | 57% | 1018.6 hPa | 0 mm | - | 976 W/m² | - |
| 1777832892 | 25° C | 58% | 1018.6 hPa | 0 mm | - | 1056 W/m² | - |
* Rain latest hour (hover to see other rain measurements)
** Current wind speed in m/s (hover to see current wind gust speed)